Date,TemperatureHighF,TemperatureAvgF,TemperatureLowF,DewpointHighF,DewpointAvgF,DewpointLowF,HumidityHigh,HumidityAvg,HumidityLow,PressureMaxIn,PressureMinIn,WindSpeedMaxMPH,WindSpeedAvgMPH,GustSpeedMaxMPH,PrecipitationSumIn
2013-3-1,57.0,44.1,32.7,34.9,29.6,24.8,74,58,35,30.29,30.15,8,2,11,0.00
2013-3-2,54.7,40.3,30.8,31.7,27.0,22.6,83,62,32,30.42,30.25,13,4,18,0.00
2013-3-3,69.9,51.3,32.0,45.8,33.3,24.7,75,52,32,30.25,29.83,19,9,24,0.00
2013-3-4,76.9,64.3,54.1,57.8,51.8,45.3,84,66,43,29.83,29.61,20,14,24,0.00
2013-3-5,64.2,51.2,38.8,57.9,31.7,20.3,87,50,24,30.34,29.66,17,10,26,0.00
2013-3-6,60.9,44.3,31.5,29.2,24.8,19.5,74,49,21,30.44,30.20,9,2,14,0.00
2013-3-7,54.8,41.3,35.6,40.2,29.1,24.7,72,62,52,30.24,30.15,8,1,9,0.00
2013-3-8,64.1,58.2,53.7,59.3,53.6,46.9,91,85,76,30.17,29.98,12,7,0,0.01
2013-3-9,71.7,65.5,60.0,64.1,60.6,56.5,96,85,75,29.98,29.64,21,13,32,0.31
2013-3-10,60.8,54.2,39.9,59.9,44.6,33.6,99,71,51,30.07,29.69,14,6,20,1.86
2013-3-11,59.8,44.0,34.4,33.9,29.3,19.8,91,61,24,30.12,30.00,10,3,13,0.00
2013-3-12,70.2,50.7,36.2,41.5,33.6,29.0,76,55,29,30.28,30.04,9,2,14,0.00
2013-3-13,71.2,54.6,42.0,45.1,39.4,33.8,79,59,32,30.42,30.28,10,2,13,0.00
2013-3-14,74.2,56.9,43.4,51.0,45.1,38.6,85,67,40,30.35,30.17,16,5,22,0.00
2013-3-15,77.8,62.4,50.4,56.4,50.7,46.2,92,69,34,30.18,29.92,17,10,22,0.00
2013-3-16,80.0,66.2,57.5,62.0,57.5,52.8,93,75,47,29.91,29.68,19,14,24,0.00
2013-3-17,76.6,68.2,60.2,64.4,61.7,57.3,91,80,62,29.76,29.61,15,8,19,0.00
2013-3-18,77.0,66.6,55.4,66.5,58.2,46.9,98,76,48,29.95,29.66,13,7,16,0.00
2013-3-19,69.6,56.5,44.4,52.2,46.7,40.0,87,71,51,30.08,29.91,15,5,19,0.08
2013-3-20,54.1,49.9,45.4,49.8,45.0,40.5,90,83,67,30.24,30.06,8,4,12,0.06
2013-3-21,69.6,59.7,45.6,60.4,49.6,36.3,87,70,54,30.01,29.57,20,10,0,0.00
2013-3-22,71.2,61.9,48.4,64.9,56.7,46.3,95,84,65,29.79,29.54,17,8,0,0.00
2013-3-23,60.7,53.1,47.7,56.3,50.3,46.1,96,90,81,29.80,29.63,11,5,0,0.03
2013-3-24,53.9,46.8,38.1,50.6,34.0,27.1,94,63,39,30.16,29.76,19,10,23,0.00
2013-3-25,38.9,34.4,29.7,27.4,24.8,22.8,76,68,62,30.34,30.16,4,1,6,0.00
2013-3-26,59.5,42.9,26.5,31.2,25.9,20.8,81,54,29,30.50,30.30,4,1,0,0.00
2013-3-27,69.3,52.1,34.1,44.7,36.8,27.2,80,59,35,30.32,30.10,15,6,0,0.00
2013-3-28,71.9,60.5,47.4,59.5,53.6,43.3,91,78,65,30.20,30.07,12,7,0,0.00
2013-3-29,73.8,65.5,55.3,61.4,58.3,53.6,95,79,63,30.15,30.02,13,8,0,0.00
2013-3-30,76.5,65.9,59.7,65.8,61.6,57.9,99,87,67,30.07,29.88,13,8,20,0.53
2013-3-31,76.0,69.1,64.5,66.6,62.9,58.9,94,81,62,29.91,29.80,14,8,0,0.00